Terminal Aerodrome Forecast
Issued by NWS Charleston, WV

Current Version | Previous Version | Text Only | Print | Product List | Glossary Off
Versions: 1 2 3 4 5 6 7 8 9 10 11 12 13 14 15 16 17 18 19 20 21 22 23 24 25 26 27 28

000
FTUS41 KRLX 201800 AAA
TAFCRW
TAF AMD
KCRW 201840Z 2019/2118 00000KT P6SM BKN040
     FM210400 00000KT 6SM BR SCT040
     FM210600 00000KT 2SM BR FEW001 SCT040
     FM210700 00000KT 1/4SM FG OVC001
     FM211300 00000KT 2SM BR BKN004
     FM211330 00000KT P6SM SCT040=

USA.gov is the U.S. government's official web portal to all federal, state and local government web resources and services.